Terminal Aerodrome Forecast
Issued by NWS

Home | Current Version | Previous Version | Graphics & Text | Print | Product List | Glossary On
Versions: 1 2 3 4 5 6 7 8 9 10 11 12 13 14 15 16 17 18 19 20 21 22 23 24 25 26 27 28 29 30 31 32 33 34 35 36 37 38 39
000
FTUS43 KLOT 262200 AAB
TAFMDW
TAF AMD
KMDW 262206Z 2622/2718 09005KT P6SM OVC020
     FM270000 02006KT P6SM OVC020
     FM270700 31008KT 6SM -SHSN BKN020 OVC040
     FM271500 30012G18KT P6SM BKN018 OVC030=

USA.gov is the U.S. government's official web portal to all federal, state and local government web resources and services.